createdAt,value
2023-11-18T00:00:14.696Z,23.40
2023-11-18T00:02:43.983Z,21.25
2023-11-18T00:05:12.253Z,19.67
2023-11-18T00:07:40.291Z,21.17
2023-11-18T00:10:09.678Z,22.42
2023-11-18T00:12:37.975Z,19.90
2023-11-18T00:15:09.927Z,19.70
2023-11-18T00:17:37.710Z,19.87
2023-11-18T00:20:10.425Z,21.33
2023-11-18T00:22:38.286Z,20.20
2023-11-18T00:25:08.986Z,20.85
2023-11-18T00:27:37.826Z,22.75
2023-11-18T00:30:09.389Z,23.55
2023-11-18T00:32:37.696Z,23.90
2023-11-18T00:35:06.292Z,22.08
2023-11-18T00:37:34.208Z,22.92
2023-11-18T00:40:02.012Z,22.70
2023-11-18T00:42:29.857Z,21.95
2023-11-18T00:44:58.507Z,24.17
2023-11-18T00:47:27.781Z,22.77
2023-11-18T00:49:55.655Z,23.48
2023-11-18T00:52:23.579Z,22.98
2023-11-18T00:54:51.349Z,24.13
2023-11-18T00:57:19.091Z,22.83
2023-11-18T00:59:48.313Z,21.80
2023-11-18T01:02:16.328Z,23.98
2023-11-18T01:04:46.922Z,21.67
2023-11-18T01:07:14.780Z,22.48
2023-11-18T01:09:42.482Z,21.00
2023-11-18T01:12:10.983Z,21.02
2023-11-18T01:14:40.315Z,21.42
2023-11-18T01:17:09.039Z,21.27
2023-11-18T01:19:37.067Z,19.35
2023-11-18T01:22:07.236Z,21.98
2023-11-18T01:24:36.084Z,19.90
2023-11-18T01:27:03.946Z,20.42
2023-11-18T01:29:31.997Z,19.63
2023-11-18T01:32:00.007Z,20.75
2023-11-18T01:34:29.247Z,21.27
2023-11-18T01:36:57.942Z,20.63
2023-11-18T01:39:27.889Z,20.30
2023-11-18T01:42:02.260Z,20.08
2023-11-18T01:44:31.520Z,20.00
2023-11-18T01:47:00.200Z,21.33
2023-11-18T01:49:29.558Z,20.65
2023-11-18T01:51:57.757Z,19.90
2023-11-18T01:54:27.873Z,21.75
2023-11-18T01:56:56.196Z,22.17
2023-11-18T01:59:24.124Z,22.00
2023-11-18T02:01:54.637Z,21.80
2023-11-18T02:04:23.554Z,20.80
2023-11-18T02:06:51.946Z,20.98
2023-11-18T02:09:28.342Z,21.73
2023-11-18T02:12:05.490Z,22.13
2023-11-18T02:14:34.342Z,20.58
2023-11-18T02:17:05.363Z,21.98
2023-11-18T02:19:35.912Z,21.13
2023-11-18T02:22:04.349Z,21.02
2023-11-18T02:24:37.586Z,20.92
2023-11-18T02:27:08.014Z,21.58
2023-11-18T02:29:38.294Z,20.00
2023-11-18T02:32:16.725Z,20.58
2023-11-18T02:34:54.811Z,19.80
2023-11-18T02:37:23.554Z,19.50
2023-11-18T02:39:55.866Z,20.42
2023-11-18T02:42:26.219Z,20.75
2023-11-18T02:45:00.258Z,21.23
2023-11-18T02:47:29.129Z,20.75
2023-11-18T02:50:06.617Z,20.95
2023-11-18T02:52:35.172Z,21.75
2023-11-18T02:55:02.917Z,23.00
2023-11-18T02:57:32.009Z,21.73
2023-11-18T03:00:01.479Z,22.65
2023-11-18T03:02:31.885Z,23.05
2023-11-18T03:05:00.591Z,22.63
2023-11-18T03:07:29.147Z,24.40
2023-11-18T03:09:58.414Z,24.15
2023-11-18T03:12:28.985Z,24.80
2023-11-18T03:14:58.824Z,22.65
2023-11-18T03:17:26.754Z,24.30
2023-11-18T03:19:54.895Z,23.08
2023-11-18T03:22:24.145Z,23.27
2023-11-18T03:24:52.367Z,24.15
2023-11-18T03:27:20.452Z,23.55
2023-11-18T03:29:49.078Z,23.20
2023-11-18T03:32:19.113Z,22.58
2023-11-18T03:34:46.848Z,21.75
2023-11-18T03:37:15.042Z,20.52
2023-11-18T03:39:42.862Z,22.15
2023-11-18T03:42:10.608Z,22.52
2023-11-18T03:44:38.689Z,22.58
2023-11-18T03:47:08.067Z,21.88
2023-11-18T03:49:37.746Z,21.20
2023-11-18T03:52:06.395Z,21.83
2023-11-18T03:54:34.180Z,20.85
2023-11-18T03:57:01.935Z,21.08
2023-11-18T03:59:29.636Z,20.48
2023-11-18T04:01:57.464Z,19.50
2023-11-18T04:04:25.280Z,21.77
2023-11-18T04:06:54.683Z,19.45
2023-11-18T04:09:22.512Z,19.58
2023-11-18T04:11:50.283Z,20.02
2023-11-18T04:14:18.109Z,20.33
2023-11-18T04:16:47.212Z,19.35
2023-11-18T04:19:15.149Z,20.98
2023-11-18T04:21:42.892Z,20.35
2023-11-18T04:24:12.171Z,20.08
2023-11-18T04:26:39.930Z,19.05
2023-11-18T04:29:07.666Z,19.67
2023-11-18T04:31:37.418Z,19.98
2023-11-18T04:34:06.255Z,19.38
2023-11-18T04:36:33.948Z,19.15
2023-11-18T04:39:01.712Z,18.58
2023-11-18T04:41:32.637Z,20.10
2023-11-18T04:44:00.931Z,19.67
2023-11-18T04:46:28.720Z,19.45
2023-11-18T04:48:57.403Z,19.35
2023-11-18T04:51:25.474Z,19.35
2023-11-18T04:53:53.592Z,19.83
2023-11-18T04:56:21.422Z,18.83
2023-11-18T04:58:50.571Z,20.05
2023-11-18T05:01:19.260Z,20.25
2023-11-18T05:03:47.130Z,19.45
2023-11-18T05:06:14.885Z,18.30
2023-11-18T05:08:42.798Z,19.17
2023-11-18T05:11:11.789Z,18.92
2023-11-18T05:13:41.203Z,19.45
2023-11-18T05:16:12.234Z,18.77
2023-11-18T05:18:40.284Z,18.73
2023-11-18T05:21:08.733Z,18.98
2023-11-18T05:23:37.225Z,19.15
2023-11-18T05:26:06.700Z,19.45
2023-11-18T05:28:35.530Z,19.08
2023-11-18T05:31:04.139Z,19.95
2023-11-18T05:33:35.587Z,18.48
2023-11-18T05:36:06.161Z,20.17
2023-11-18T05:38:35.966Z,17.95
2023-11-18T05:41:04.964Z,18.23
2023-11-18T05:43:38.248Z,20.48
2023-11-18T05:46:21.742Z,18.90
2023-11-18T05:48:51.456Z,19.42
2023-11-18T05:51:22.232Z,18.42
2023-11-18T05:53:49.993Z,18.73
2023-11-18T05:56:18.808Z,18.42
2023-11-18T05:58:46.759Z,19.30
2023-11-18T06:01:15.618Z,18.83
2023-11-18T06:03:44.122Z,18.85
2023-11-18T06:06:15.167Z,18.20
2023-11-18T06:08:43.184Z,19.02
2023-11-18T06:11:15.195Z,18.88
2023-11-18T06:13:44.674Z,18.80
2023-11-18T06:16:16.363Z,18.17
2023-11-18T06:18:46.323Z,19.20
2023-11-18T06:21:16.319Z,18.60
2023-11-18T06:23:44.442Z,18.98
2023-11-18T06:26:12.486Z,18.88
2023-11-18T06:28:41.912Z,17.80
2023-11-18T06:31:10.922Z,18.73
2023-11-18T06:33:41.188Z,19.98
2023-11-18T06:36:09.795Z,17.30
2023-11-18T06:38:39.174Z,18.30
2023-11-18T06:41:09.691Z,19.77
2023-11-18T06:43:52.826Z,21.05
2023-11-18T06:46:23.176Z,18.48
2023-11-18T06:48:51.560Z,19.38
2023-11-18T06:51:19.371Z,19.73
2023-11-18T06:53:48.411Z,19.08
2023-11-18T06:56:17.084Z,20.48
2023-11-18T06:58:45.232Z,20.83
2023-11-18T07:01:15.812Z,20.10
2023-11-18T07:03:43.890Z,20.08
2023-11-18T07:06:12.189Z,19.52
2023-11-18T07:08:40.297Z,20.30
2023-11-18T07:11:09.417Z,22.33
2023-11-18T07:13:38.499Z,22.70
2023-11-18T07:16:07.997Z,24.05
2023-11-18T07:18:35.850Z,25.25
2023-11-18T07:21:05.790Z,24.23
2023-11-18T07:23:33.976Z,23.27
2023-11-18T07:26:02.341Z,27.67
2023-11-18T07:28:32.286Z,24.85
2023-11-18T07:31:00.896Z,25.15
2023-11-18T07:33:28.921Z,24.55
2023-11-18T07:35:56.921Z,23.15
2023-11-18T07:38:24.716Z,24.90
2023-11-18T07:40:57.744Z,27.35
2023-11-18T07:43:25.761Z,24.42
2023-11-18T07:45:55.126Z,27.65
2023-11-18T07:48:22.895Z,24.63
2023-11-18T07:50:50.647Z,24.63
2023-11-18T07:53:18.520Z,25.20
2023-11-18T07:55:46.476Z,25.80
2023-11-18T07:58:14.243Z,25.13
2023-11-18T08:00:43.626Z,26.05
2023-11-18T08:03:14.597Z,24.92
2023-11-18T08:05:44.911Z,26.42
2023-11-18T08:08:12.922Z,26.35
2023-11-18T08:10:43.374Z,26.67
2023-11-18T08:13:13.977Z,34.08
2023-11-18T08:15:43.099Z,27.85
2023-11-18T08:18:12.428Z,28.20
2023-11-18T08:20:40.816Z,26.20
2023-11-18T08:23:08.634Z,25.00
2023-11-18T08:25:37.075Z,24.88
2023-11-18T08:28:07.886Z,26.83
2023-11-18T08:30:35.985Z,26.27
2023-11-18T08:33:06.650Z,27.90
2023-11-18T08:35:36.134Z,28.52
2023-11-18T08:38:05.365Z,25.42
2023-11-18T08:40:33.192Z,28.35
2023-11-18T08:43:02.320Z,26.00
2023-11-18T08:45:31.389Z,28.27
2023-11-18T08:48:00.700Z,27.92
2023-11-18T08:50:28.954Z,30.67
2023-11-18T08:53:00.196Z,25.90
2023-11-18T08:55:42.008Z,26.85
2023-11-18T08:58:23.265Z,27.50
2023-11-18T09:00:54.968Z,27.77
2023-11-18T09:03:29.085Z,32.28
2023-11-18T09:06:04.803Z,27.42
2023-11-18T09:08:37.021Z,27.73
2023-11-18T09:11:07.219Z,27.88
2023-11-18T09:13:36.963Z,28.55
2023-11-18T09:16:09.552Z,27.88
2023-11-18T09:18:41.351Z,27.05
2023-11-18T09:21:15.809Z,27.55
2023-11-18T09:23:46.687Z,27.23
2023-11-18T09:26:15.710Z,27.83
2023-11-18T09:28:43.926Z,31.00
2023-11-18T09:31:12.544Z,28.77
2023-11-18T09:33:46.227Z,30.42
2023-11-18T09:36:14.218Z,32.08
2023-11-18T09:38:43.686Z,32.60
2023-11-18T09:41:14.691Z,33.00
2023-11-18T09:43:47.742Z,28.98
2023-11-18T09:46:17.005Z,32.22
2023-11-18T09:48:48.183Z,30.15
2023-11-18T09:51:22.098Z,31.50
2023-11-18T09:53:53.762Z,33.83
2023-11-18T09:56:38.821Z,30.30
2023-11-18T09:59:17.039Z,30.80
2023-11-18T10:01:47.680Z,29.67
2023-11-18T10:04:19.253Z,32.88
2023-11-18T10:06:49.376Z,32.83
2023-11-18T10:09:18.633Z,31.40
2023-11-18T10:11:49.864Z,31.60
2023-11-18T10:14:18.005Z,31.63
2023-11-18T10:16:48.598Z,33.85
2023-11-18T10:19:18.920Z,32.05
2023-11-18T10:21:50.150Z,34.20
2023-11-18T10:24:21.083Z,34.33
2023-11-18T10:26:58.678Z,33.00
2023-11-18T10:29:29.301Z,33.42
2023-11-18T10:32:09.059Z,33.22
2023-11-18T10:34:37.397Z,31.75
2023-11-18T10:37:07.735Z,33.80
2023-11-18T10:39:36.836Z,33.58
2023-11-18T10:42:06.775Z,36.85
2023-11-18T10:44:34.523Z,33.22
2023-11-18T10:47:02.782Z,33.10
2023-11-18T10:49:37.893Z,34.42
2023-11-18T10:52:09.672Z,35.10
2023-11-18T10:54:38.499Z,36.47
2023-11-18T10:57:10.168Z,38.88
2023-11-18T10:59:38.321Z,33.53
2023-11-18T11:02:22.817Z,34.45
2023-11-18T11:04:51.149Z,33.30
2023-11-18T11:07:21.402Z,34.75
2023-11-18T11:09:50.700Z,34.78
2023-11-18T11:12:21.387Z,31.95
2023-11-18T11:15:00.813Z,33.90
2023-11-18T11:17:32.150Z,32.22
2023-11-18T11:20:18.651Z,29.95
2023-11-18T11:23:00.094Z,32.55
2023-11-18T11:25:36.270Z,32.63
2023-11-18T11:28:14.941Z,33.38
2023-11-18T11:30:47.630Z,32.53
2023-11-18T11:33:28.897Z,29.80
2023-11-18T11:35:59.470Z,31.00
2023-11-18T11:38:30.046Z,30.42
2023-11-18T11:41:01.898Z,29.05
2023-11-18T11:43:32.031Z,27.83
2023-11-18T11:46:00.384Z,28.95
2023-11-18T11:48:29.402Z,27.60
2023-11-18T11:51:07.097Z,28.38
2023-11-18T11:53:40.318Z,29.27
2023-11-18T11:56:14.980Z,26.73
2023-11-18T11:58:45.716Z,23.00
2023-11-18T12:01:31.069Z,23.75
2023-11-18T12:03:59.973Z,22.45
2023-11-18T12:06:29.346Z,20.00
2023-11-18T12:08:58.857Z,20.08
2023-11-18T12:11:28.803Z,21.75
2023-11-18T12:14:14.199Z,17.67
2023-11-18T12:17:10.226Z,18.10
2023-11-18T12:19:46.205Z,18.50
2023-11-18T12:22:25.480Z,18.05
2023-11-18T12:25:34.684Z,15.98
2023-11-18T12:28:10.373Z,17.85
2023-11-18T12:30:53.103Z,17.38
2023-11-18T12:33:24.426Z,17.35
2023-11-18T12:36:22.720Z,16.67
2023-11-18T12:39:34.496Z,15.40
2023-11-18T12:42:08.976Z,17.25
2023-11-18T12:44:40.639Z,15.10
2023-11-18T12:47:19.524Z,16.13
2023-11-18T12:49:54.765Z,15.57
2023-11-18T12:52:24.590Z,14.52
2023-11-18T12:54:52.754Z,16.10
2023-11-18T12:57:23.884Z,15.00
2023-11-18T12:59:52.006Z,14.88
2023-11-18T13:02:22.182Z,15.35
2023-11-18T13:04:51.324Z,15.25
2023-11-18T13:07:20.044Z,15.13
2023-11-18T13:09:48.578Z,14.48
2023-11-18T13:12:18.405Z,14.32
2023-11-18T13:14:47.213Z,15.13
2023-11-18T13:17:17.259Z,14.35
2023-11-18T13:19:49.092Z,15.45
2023-11-18T13:22:20.140Z,15.88
2023-11-18T13:24:48.368Z,16.83
2023-11-18T13:27:18.253Z,15.90
2023-11-18T13:29:49.980Z,15.68
2023-11-18T13:32:18.249Z,17.83
2023-11-18T13:34:47.611Z,16.27
2023-11-18T13:37:18.168Z,15.50
2023-11-18T13:39:48.300Z,15.52
2023-11-18T13:42:24.041Z,14.82
2023-11-18T13:44:54.149Z,15.70
2023-11-18T13:47:23.990Z,15.88
2023-11-18T13:49:56.291Z,15.68
2023-11-18T13:52:24.295Z,15.75
2023-11-18T13:54:56.800Z,15.30
2023-11-18T13:57:25.349Z,16.65
2023-11-18T13:59:53.719Z,15.98
2023-11-18T14:02:22.484Z,15.75
2023-11-18T14:04:56.636Z,16.52
2023-11-18T14:07:25.492Z,15.90
2023-11-18T14:09:57.741Z,16.48
2023-11-18T14:12:28.752Z,15.70
2023-11-18T14:14:56.624Z,14.43
2023-11-18T14:17:24.461Z,14.90
2023-11-18T14:19:53.815Z,14.25
2023-11-18T14:22:21.626Z,13.90
2023-11-18T14:24:49.453Z,15.63
2023-11-18T14:27:17.990Z,14.82
2023-11-18T14:29:47.655Z,14.90
2023-11-18T14:32:15.515Z,14.43
2023-11-18T14:34:44.252Z,15.45
2023-11-18T14:37:13.418Z,14.80
2023-11-18T14:39:41.672Z,14.13
2023-11-18T14:42:10.658Z,14.05
2023-11-18T14:44:55.834Z,16.50
2023-11-18T14:47:23.739Z,16.27
2023-11-18T14:49:51.554Z,15.50
2023-11-18T14:52:20.685Z,16.42
2023-11-18T14:54:48.512Z,15.73
2023-11-18T14:57:17.093Z,14.48
2023-11-18T14:59:44.781Z,15.75
2023-11-18T15:02:12.635Z,13.77
2023-11-18T15:04:40.716Z,13.77
2023-11-18T15:07:08.472Z,13.85
2023-11-18T15:09:55.087Z,13.75
2023-11-18T15:12:22.823Z,13.88
2023-11-18T15:14:51.183Z,13.98
2023-11-18T15:17:19.001Z,14.52
2023-11-18T15:19:46.882Z,14.50
2023-11-18T15:22:14.658Z,13.77
2023-11-18T15:24:43.736Z,13.25
2023-11-18T15:27:12.557Z,13.57
2023-11-18T15:29:46.584Z,13.75
2023-11-18T15:32:14.601Z,15.23
2023-11-18T15:34:42.477Z,13.57
2023-11-18T15:37:10.499Z,13.80
2023-11-18T15:39:38.227Z,14.23
2023-11-18T15:42:07.924Z,13.43
2023-11-18T15:44:35.758Z,13.77
2023-11-18T15:47:04.520Z,13.32
2023-11-18T15:49:32.320Z,15.50
2023-11-18T15:52:00.058Z,14.82
2023-11-18T15:54:28.664Z,14.70
2023-11-18T15:56:59.462Z,15.18
2023-11-18T15:59:29.123Z,17.70
2023-11-18T16:01:56.982Z,19.75
2023-11-18T16:04:25.140Z,18.30
2023-11-18T16:06:52.944Z,16.80
2023-11-18T16:09:21.688Z,40.97
2023-11-18T16:11:50.217Z,17.38
2023-11-18T16:14:18.181Z,16.65
2023-11-18T16:16:47.317Z,15.00
2023-11-18T16:19:17.399Z,16.80
2023-11-18T16:21:47.255Z,13.45
2023-11-18T16:24:15.609Z,16.00
2023-11-18T16:26:45.121Z,14.05
2023-11-18T16:29:15.734Z,12.82
2023-11-18T16:31:44.084Z,13.68
2023-11-18T16:34:13.395Z,13.25
2023-11-18T16:36:41.188Z,13.50
2023-11-18T16:39:08.901Z,12.38
2023-11-18T16:41:43.629Z,12.63
2023-11-18T16:44:13.928Z,11.77
2023-11-18T16:46:41.886Z,10.57
2023-11-18T16:49:09.730Z,11.13
2023-11-18T16:51:39.579Z,11.27
2023-11-18T16:54:08.690Z,10.25
2023-11-18T16:56:36.459Z,10.65
2023-11-18T16:59:04.686Z,10.00
2023-11-18T17:01:32.453Z,10.40
2023-11-18T17:04:00.539Z,9.73
2023-11-18T17:06:28.383Z,9.35
2023-11-18T17:08:57.551Z,9.07
2023-11-18T17:11:26.252Z,8.48
2023-11-18T17:13:54.030Z,9.60
2023-11-18T17:16:26.516Z,9.25
2023-11-18T17:18:54.663Z,8.43
2023-11-18T17:21:22.505Z,7.20
2023-11-18T17:23:51.638Z,7.03
2023-11-18T17:26:20.731Z,10.70
2023-11-18T17:28:49.283Z,7.97
2023-11-18T17:31:16.998Z,7.43
2023-11-18T17:33:44.938Z,6.70
2023-11-18T17:36:12.732Z,6.88
2023-11-18T17:38:40.579Z,6.63
2023-11-18T17:41:08.752Z,7.10
2023-11-18T17:43:38.942Z,6.43
2023-11-18T17:46:09.078Z,6.65
2023-11-18T17:48:37.357Z,9.10
2023-11-18T17:51:05.450Z,6.72
2023-11-18T17:53:33.229Z,5.60
2023-11-18T17:56:01.119Z,5.47
2023-11-18T17:58:28.895Z,5.47
2023-11-18T18:00:59.111Z,6.68
2023-11-18T18:03:27.496Z,4.38
2023-11-18T18:05:55.625Z,5.15
2023-11-18T18:08:23.464Z,6.93
2023-11-18T18:10:51.231Z,4.57
2023-11-18T18:13:19.092Z,3.90
2023-11-18T18:15:48.434Z,5.22
2023-11-18T18:18:17.578Z,7.10
2023-11-18T18:20:49.279Z,5.45
2023-11-18T18:23:17.540Z,4.60
2023-11-18T18:25:45.386Z,3.97
2023-11-18T18:28:13.148Z,4.40
2023-11-18T18:30:41.271Z,4.57
2023-11-18T18:33:09.985Z,8.82
2023-11-18T18:35:40.765Z,3.80
2023-11-18T18:38:09.207Z,4.75
2023-11-18T18:40:37.009Z,3.63
2023-11-18T18:43:04.863Z,4.93
2023-11-18T18:45:33.028Z,5.10
2023-11-18T18:48:01.234Z,3.38
2023-11-18T18:50:35.385Z,4.45
2023-11-18T18:53:04.874Z,4.97
2023-11-18T18:55:32.877Z,5.95
2023-11-18T18:58:00.956Z,4.47
2023-11-18T19:00:28.804Z,6.63
2023-11-18T19:02:56.778Z,5.22
2023-11-18T19:05:24.872Z,5.70
2023-11-18T19:07:56.441Z,7.03
2023-11-18T19:10:26.145Z,5.68
2023-11-18T19:13:00.733Z,7.32
2023-11-18T19:15:28.627Z,5.95
2023-11-18T19:17:58.901Z,5.70
2023-11-18T19:20:27.076Z,6.40
2023-11-18T19:22:55.241Z,4.75
2023-11-18T19:25:23.156Z,5.47
2023-11-18T19:30:20.202Z,6.50
2023-11-18T19:32:47.958Z,4.05
2023-11-18T19:35:16.554Z,4.93
2023-11-18T19:37:45.130Z,4.55
2023-11-18T19:40:13.856Z,5.22
2023-11-18T19:42:41.809Z,6.65
2023-11-18T19:45:14.033Z,4.90
2023-11-18T19:47:42.125Z,5.07
2023-11-18T19:50:11.118Z,5.78
2023-11-18T19:52:38.893Z,6.65
2023-11-18T19:55:07.731Z,8.05
2023-11-18T19:57:36.758Z,9.30
2023-11-18T20:00:07.268Z,7.20
2023-11-18T20:02:42.990Z,5.68
2023-11-18T20:05:11.082Z,6.93
2023-11-18T20:07:39.787Z,8.43
2023-11-18T20:10:10.267Z,15.55
2023-11-18T20:12:40.090Z,6.95
2023-11-18T20:15:12.233Z,9.32
2023-11-18T20:17:41.609Z,8.10
2023-11-18T20:20:12.125Z,6.97
2023-11-18T20:22:40.012Z,11.10
2023-11-18T20:25:08.863Z,9.63
2023-11-18T20:27:37.417Z,8.07
2023-11-18T20:30:06.129Z,8.88
2023-11-18T20:32:34.384Z,10.65
2023-11-18T20:35:02.533Z,9.57
2023-11-18T20:37:32.457Z,12.77
2023-11-18T20:40:00.264Z,11.48
2023-11-18T20:42:28.001Z,12.68
2023-11-18T20:44:55.997Z,8.43
2023-11-18T20:47:24.319Z,12.88
2023-11-18T20:49:52.398Z,10.85
2023-11-18T20:52:20.143Z,8.38
2023-11-18T20:54:49.225Z,9.75
2023-11-18T20:57:16.966Z,14.50
2023-11-18T20:59:44.903Z,13.98
2023-11-18T21:02:13.963Z,10.27
2023-11-18T21:04:44.220Z,10.98
2023-11-18T21:07:12.069Z,13.10
2023-11-18T21:09:41.018Z,14.48
2023-11-18T21:12:18.064Z,14.80
2023-11-18T21:14:49.097Z,14.52
2023-11-18T21:17:17.243Z,13.32
2023-11-18T21:19:45.402Z,16.88
2023-11-18T21:22:14.309Z,11.43
2023-11-18T21:24:42.040Z,12.88
2023-11-18T21:27:11.127Z,15.18
2023-11-18T21:29:38.834Z,14.45
2023-11-18T21:32:07.259Z,13.23
2023-11-18T21:34:35.079Z,17.70
2023-11-18T21:37:02.877Z,14.65
2023-11-18T21:39:30.704Z,12.60
2023-11-18T21:41:58.507Z,13.63
2023-11-18T21:44:27.569Z,18.20
2023-11-18T21:46:55.413Z,19.35
2023-11-18T21:49:23.217Z,17.67
2023-11-18T21:51:51.224Z,16.98
2023-11-18T21:54:18.955Z,15.35
2023-11-18T21:56:46.987Z,11.73
2023-11-18T21:59:15.585Z,15.23
2023-11-18T22:01:44.800Z,13.70
2023-11-18T22:04:12.624Z,12.00
2023-11-18T22:06:40.393Z,11.52
2023-11-18T22:09:09.970Z,17.10
2023-11-18T22:11:38.375Z,12.10
2023-11-18T22:14:06.260Z,14.35
2023-11-18T22:16:34.714Z,15.48
2023-11-18T22:19:05.504Z,17.77
2023-11-18T22:21:33.818Z,14.32
2023-11-18T22:24:01.531Z,15.52
2023-11-18T22:26:30.809Z,20.75
2023-11-18T22:28:58.627Z,19.45
2023-11-18T22:31:27.009Z,14.10
2023-11-18T22:33:55.008Z,14.38
2023-11-18T22:36:24.133Z,19.35
2023-11-18T22:38:52.422Z,12.20
2023-11-18T22:41:20.273Z,16.45
2023-11-18T22:43:48.792Z,16.50
2023-11-18T22:46:16.893Z,12.93
2023-11-18T22:48:45.819Z,14.43
2023-11-18T22:51:13.660Z,13.68
2023-11-18T22:53:43.605Z,13.50
2023-11-18T22:56:11.876Z,16.65
2023-11-18T22:58:42.692Z,16.33
2023-11-18T23:01:11.863Z,22.40
2023-11-18T23:03:40.391Z,15.68
2023-11-18T23:06:10.745Z,14.93
2023-11-18T23:08:38.845Z,14.70
2023-11-18T23:11:08.139Z,16.40
2023-11-18T23:13:36.782Z,14.82
2023-11-18T23:16:04.912Z,14.95
2023-11-18T23:18:33.532Z,14.80
2023-11-18T23:21:01.391Z,20.70
2023-11-18T23:23:29.073Z,15.05
2023-11-18T23:25:56.791Z,17.05
2023-11-18T23:28:25.911Z,19.63
2023-11-18T23:30:57.401Z,18.45
2023-11-18T23:33:25.313Z,19.45
2023-11-18T23:35:53.687Z,18.40
2023-11-18T23:38:22.382Z,18.42
2023-11-18T23:40:50.537Z,21.38
2023-11-18T23:43:19.100Z,18.35
2023-11-18T23:45:48.539Z,17.70
2023-11-18T23:48:16.823Z,21.25
2023-11-18T23:50:44.781Z,19.42
2023-11-18T23:53:12.563Z,17.73
2023-11-18T23:55:40.357Z,18.00
2023-11-18T23:58:09.023Z,18.75
